Time;durP1;ratioP1;P1;durP2;ratioP2;P2;SDS_P1;SDS_P2;PMS_P1;PMS_P2;Temp;Humidity;BMP_temperature;BMP_pressure;BME280_temperature;BME280_humidity;BME280_pressure;Samples;Min_cycle;Max_cycle;Signal;HPM_P1;HPM_P2
2021/11/23 00:01:41;;;;;;;13.32;2.90;;;;;;;;;;5105629;28;20119;-65
2021/11/23 00:04:07;;;;;;;16.75;3.65;;;;;;;;;;5110111;28;20110;-65
2021/11/23 00:06:35;;;;;;;10.10;2.22;;;;;;;;;;5124357;28;20051;-65
2021/11/23 00:09:01;;;;;;;;;;;;;;;;;;5103248;28;20052;-65
2021/11/23 00:11:27;;;;;;;8.70;2.85;;;;;;;;;;5114125;28;20026;-65
2021/11/23 00:13:53;;;;;;;11.75;2.53;;;;;;;;;;5122817;28;20043;-65
2021/11/23 00:16:20;;;;;;;15.70;3.90;;;;;;;;;;5124281;28;20044;-65
2021/11/23 00:18:46;;;;;;;13.93;3.05;;;;;;;;;;5105996;28;20575;-66
2021/11/23 00:21:13;;;;;;;11.90;3.08;;;;;;;;;;5124188;28;20096;-66
2021/11/23 00:23:39;;;;;;;11.82;3.08;;;;;;;;;;5113126;28;20538;-65
2021/11/23 00:26:06;;;;;;;13.98;3.58;;;;;;;;;;5126661;28;20062;-65
2021/11/23 00:28:32;;;;;;;17.65;4.97;;;;;;;;;;5127853;28;20123;-65
2021/11/23 00:30:59;;;;;;;19.98;3.92;;;;;;;;;;5128035;28;20045;-65
2021/11/23 00:33:30;;;;;;;16.98;4.35;;;;;;;;;;5109159;28;20119;-66
2021/11/23 00:35:56;;;;;;;9.65;3.25;;;;;;;;;;5126827;28;20050;-65
2021/11/23 00:38:22;;;;;;;13.10;3.70;;;;;;;;;;5109447;28;20071;-65
2021/11/23 00:40:49;;;;;;;21.33;5.53;;;;;;;;;;5105691;28;20079;-65
2021/11/23 00:43:15;;;;;;;11.70;4.50;;;;;;;;;;5104099;28;20044;-65
2021/11/23 00:45:41;;;;;;;12.85;4.68;;;;;;;;;;5127884;28;20036;-65
2021/11/23 00:48:08;;;;;;;12.77;4.50;;;;;;;;;;5128073;28;20301;-65
2021/11/23 00:50:34;;;;;;;14.45;4.32;;;;;;;;;;5128039;28;20126;-66
2021/11/23 00:53:01;;;;;;;16.90;5.15;;;;;;;;;;5108653;28;20058;-65
2021/11/23 00:55:28;;;;;;;9.88;4.45;;;;;;;;;;5127190;28;20172;-65
2021/11/23 00:57:54;;;;;;;6.47;3.50;;;;;;;;;;5126786;28;20130;-65
2021/11/23 01:00:21;;;;;;;14.73;4.40;;;;;;;;;;5108778;28;20086;-65
2021/11/23 01:02:47;;;;;;;17.65;4.93;;;;;;;;;;5105943;28;20055;-65
2021/11/23 01:05:13;;;;;;;15.77;5.38;;;;;;;;;;5122641;28;20079;-65
2021/11/23 01:07:39;;;;;;;10.73;4.22;;;;;;;;;;5126525;28;20062;-65
2021/11/23 01:10:06;;;;;;;22.05;4.40;;;;;;;;;;5108783;28;20055;-65
2021/11/23 01:12:33;;;;;;;10.27;4.00;;;;;;;;;;5108568;28;20044;-65
2021/11/23 01:14:59;;;;;;;14.88;4.28;;;;;;;;;;5127424;28;20067;-65
2021/11/23 01:17:25;;;;;;;10.88;4.13;;;;;;;;;;5126417;28;20115;-65
2021/11/23 01:19:51;;;;;;;15.07;4.28;;;;;;;;;;5109253;28;20049;-65
2021/11/23 01:22:17;;;;;;;14.98;4.05;;;;;;;;;;5126491;28;20067;-65
2021/11/23 01:24:43;;;;;;;6.88;3.55;;;;;;;;;;5127000;28;20126;-65
2021/11/23 01:27:09;;;;;;;12.02;4.07;;;;;;;;;;5125755;28;20039;-65
2021/11/23 01:29:36;;;;;;;18.15;4.10;;;;;;;;;;5108902;28;20054;-65
2021/11/23 01:32:02;;;;;;;17.92;3.75;;;;;;;;;;5108840;28;20043;-65
2021/11/23 01:34:28;;;;;;;10.90;3.95;;;;;;;;;;5105540;28;20048;-65
2021/11/23 01:36:54;;;;;;;18.85;4.05;;;;;;;;;;5107623;28;20066;-66
2021/11/23 01:39:22;;;;;;;16.35;5.28;;;;;;;;;;5126879;28;20102;-66
2021/11/23 01:41:48;;;;;;;8.77;3.50;;;;;;;;;;5107911;28;20051;-66
2021/11/23 01:44:14;;;;;;;14.98;3.85;;;;;;;;;;5126932;28;20035;-66
2021/11/23 01:46:40;;;;;;;15.40;3.55;;;;;;;;;;5126248;28;20184;-66
2021/11/23 01:49:06;;;;;;;11.55;3.80;;;;;;;;;;5126825;28;20069;-66
2021/11/23 01:51:33;;;;;;;14.18;3.25;;;;;;;;;;5107763;28;20071;-66
2021/11/23 01:53:59;;;;;;;14.48;3.70;;;;;;;;;;5126729;28;20052;-66
2021/11/23 01:56:26;;;;;;;16.02;3.47;;;;;;;;;;5125281;28;20039;-66
2021/11/23 01:58:52;;;;;;;19.17;3.78;;;;;;;;;;5107979;28;20126;-66
2021/11/23 02:01:18;;;;;;;17.00;3.92;;;;;;;;;;5108196;28;20111;-65
2021/11/23 02:03:44;;;;;;;16.95;3.97;;;;;;;;;;5126389;28;20051;-66
2021/11/23 02:06:11;;;;;;;17.23;3.83;;;;;;;;;;5119710;28;20131;-65
2021/11/23 02:08:37;;;;;;;11.00;3.47;;;;;;;;;;5119478;28;20032;-67
2021/11/23 02:11:03;;;;;;;20.10;3.90;;;;;;;;;;5107782;28;20048;-67
2021/11/23 02:13:30;;;;;;;21.17;4.22;;;;;;;;;;5107734;28;20073;-67
2021/11/23 02:15:59;;;;;;;23.38;3.85;;;;;;;;;;5111256;28;20039;-68
2021/11/23 02:18:26;;;;;;;11.10;2.67;;;;;;;;;;5125207;28;20555;-68
2021/11/23 02:20:53;;;;;;;14.30;3.05;;;;;;;;;;5106763;28;20065;-68
2021/11/23 02:23:19;;;;;;;10.05;3.15;;;;;;;;;;5107752;28;20048;-68
2021/11/23 02:25:46;;;;;;;8.25;2.08;;;;;;;;;;5125423;28;20043;-68
2021/11/23 02:28:12;;;;;;;14.02;3.25;;;;;;;;;;5107638;28;20069;-68
2021/11/23 02:30:45;;;;;;;12.50;3.45;;;;;;;;;;5107598;28;20056;-68
2021/11/23 02:33:11;;;;;;;11.27;1.77;;;;;;;;;;5124936;28;20043;-68
2021/11/23 02:35:37;;;;;;;16.80;2.33;;;;;;;;;;5125721;28;20043;-67
2021/11/23 02:38:03;;;;;;;11.00;2.10;;;;;;;;;;5125541;28;20058;-67
2021/11/23 02:40:30;;;;;;;19.63;1.90;;;;;;;;;;5124994;28;20040;-67
2021/11/23 02:42:56;;;;;;;26.00;2.83;;;;;;;;;;5113440;28;20047;-67
2021/11/23 02:45:24;;;;;;;9.90;2.17;;;;;;;;;;5123195;28;20399;-67
2021/11/23 02:47:51;;;;;;;15.90;1.77;;;;;;;;;;5104758;28;20052;-66
2021/11/23 02:50:17;;;;;;;12.77;1.98;;;;;;;;;;5107010;28;20074;-67
2021/11/23 02:52:44;;;;;;;15.55;2.55;;;;;;;;;;5124927;28;20111;-67
2021/11/23 02:55:11;;;;;;;17.43;2.10;;;;;;;;;;5124977;28;20051;-67
2021/11/23 02:57:37;;;;;;;15.70;2.70;;;;;;;;;;5125658;28;20501;-67
2021/11/23 03:00:24;;;;;;;17.33;2.50;;;;;;;;;;5117787;28;20073;-66
2021/11/23 03:02:50;;;;;;;11.50;1.77;;;;;;;;;;5125479;28;20067;-67
2021/11/23 03:05:18;;;;;;;8.70;1.83;;;;;;;;;;5124979;28;20495;-66
2021/11/23 03:07:45;;;;;;;19.85;2.10;;;;;;;;;;5101493;28;20074;-66
2021/11/23 03:10:11;;;;;;;10.73;1.45;;;;;;;;;;5116335;28;20055;-66
2021/11/23 03:12:38;;;;;;;13.50;0.95;;;;;;;;;;5121683;28;20111;-66
2021/11/23 03:15:05;;;;;;;15.87;2.33;;;;;;;;;;5096310;28;20051;-66
2021/11/23 03:17:31;;;;;;;16.67;2.15;;;;;;;;;;5104066;28;20100;-66
2021/11/23 03:19:58;;;;;;;10.30;2.13;;;;;;;;;;5113792;28;20286;-66
2021/11/23 03:22:24;;;;;;;16.35;1.58;;;;;;;;;;5086211;28;20052;-66
2021/11/23 03:24:50;;;;;;;21.35;2.17;;;;;;;;;;5105655;28;20054;-66
2021/11/23 03:27:16;;;;;;;14.32;2.00;;;;;;;;;;5106517;28;20047;-66
2021/11/23 03:29:43;;;;;;;19.73;2.65;;;;;;;;;;5110138;28;20051;-66
2021/11/23 03:32:10;;;;;;;19.42;2.20;;;;;;;;;;5124584;28;20101;-66
2021/11/23 03:34:37;;;;;;;16.33;3.10;;;;;;;;;;5110107;28;20067;-67
2021/11/23 03:37:24;;;;;;;14.63;1.90;;;;;;;;;;5105796;28;20112;-66
2021/11/23 03:39:51;;;;;;;13.70;2.00;;;;;;;;;;5123916;28;20107;-66
2021/11/23 03:42:17;;;;;;;18.13;2.87;;;;;;;;;;5105899;28;20135;-66
2021/11/23 03:44:47;;;;;;;17.52;2.20;;;;;;;;;;5106270;28;20648;-66
2021/11/23 03:47:14;;;;;;;12.85;2.70;;;;;;;;;;5105613;28;20048;-66
2021/11/23 03:49:45;;;;;;;13.88;1.88;;;;;;;;;;5124888;28;20054;-66
2021/11/23 03:52:11;;;;;;;11.63;1.77;;;;;;;;;;5105655;28;20052;-66
2021/11/23 03:54:38;;;;;;;18.02;2.60;;;;;;;;;;5111639;28;20051;-66
2021/11/23 03:57:05;;;;;;;17.02;1.88;;;;;;;;;;5103875;28;20055;-66
2021/11/23 03:59:31;;;;;;;13.80;2.50;;;;;;;;;;5127595;28;20065;-65
2021/11/23 04:01:57;;;;;;;11.80;1.60;;;;;;;;;;5110170;28;20126;-65
2021/11/23 04:04:23;;;;;;;17.17;3.40;;;;;;;;;;5128978;28;20383;-65
2021/11/23 04:06:49;;;;;;;10.02;2.13;;;;;;;;;;5109503;28;20048;-66
2021/11/23 04:09:15;;;;;;;17.17;1.83;;;;;;;;;;5128342;28;20372;-65
2021/11/23 04:11:41;;;;;;;10.13;1.65;;;;;;;;;;5109725;28;20043;-65
2021/11/23 04:14:08;;;;;;;17.40;2.40;;;;;;;;;;5128349;28;20360;-65
2021/11/23 04:16:34;;;;;;;14.50;1.90;;;;;;;;;;5109082;28;20111;-65
2021/11/23 04:19:00;;;;;;;14.45;2.08;;;;;;;;;;5095717;28;20139;-65
2021/11/23 04:21:26;;;;;;;12.70;2.45;;;;;;;;;;5118616;28;20079;-65
2021/11/23 04:23:53;;;;;;;17.30;1.50;;;;;;;;;;5107783;28;20282;-65
2021/11/23 04:26:19;;;;;;;7.40;1.10;;;;;;;;;;5119111;28;20050;-65
2021/11/23 04:28:45;;;;;;;20.30;1.88;;;;;;;;;;5127896;28;20071;-65
2021/11/23 04:31:11;;;;;;;8.70;1.50;;;;;;;;;;5127752;28;20044;-65
2021/11/23 04:33:37;;;;;;;10.40;1.33;;;;;;;;;;5128291;28;20043;-65
2021/11/23 04:36:04;;;;;;;18.55;2.65;;;;;;;;;;5127240;28;20078;-65
2021/11/23 04:38:31;;;;;;;12.52;1.50;;;;;;;;;;5128284;28;20067;-66
2021/11/23 04:40:57;;;;;;;13.25;2.25;;;;;;;;;;5109032;28;20109;-66
2021/11/23 04:43:23;;;;;;;10.15;1.27;;;;;;;;;;5105522;28;20097;-65
2021/11/23 04:45:50;;;;;;;18.23;1.90;;;;;;;;;;5091174;28;20086;-65
2021/11/23 04:48:17;;;;;;;10.80;1.98;;;;;;;;;;5091312;28;20052;-65
2021/11/23 04:50:43;;;;;;;12.30;1.75;;;;;;;;;;5127980;28;20410;-66
2021/11/23 04:53:09;;;;;;;14.88;2.78;;;;;;;;;;5127397;28;20059;-65
2021/11/23 04:55:35;;;;;;;10.07;1.83;;;;;;;;;;5107088;28;20109;-65
2021/11/23 04:58:02;;;;;;;12.95;1.92;;;;;;;;;;5101260;28;20109;-65
2021/11/23 05:00:28;;;;;;;14.05;2.17;;;;;;;;;;5127516;28;20039;-65
2021/11/23 05:02:54;;;;;;;11.27;3.05;;;;;;;;;;5127566;28;20058;-65
2021/11/23 05:05:20;;;;;;;10.38;2.05;;;;;;;;;;5100482;28;20067;-65
2021/11/23 05:07:46;;;;;;;15.85;1.58;;;;;;;;;;5127738;28;20482;-65
2021/11/23 05:10:15;;;;;;;12.57;1.65;;;;;;;;;;5125746;28;20043;-65
2021/11/23 05:12:41;;;;;;;10.40;2.45;;;;;;;;;;5107031;28;20044;-65
2021/11/23 05:15:08;;;;;;;10.05;1.48;;;;;;;;;;5126726;28;20047;-65
2021/11/23 05:17:34;;;;;;;11.70;1.58;;;;;;;;;;5126778;28;20047;-65
2021/11/23 05:20:00;;;;;;;12.82;2.00;;;;;;;;;;5126982;28;20050;-65
2021/11/23 05:22:26;;;;;;;12.98;1.85;;;;;;;;;;5125096;28;20031;-65
2021/11/23 05:24:53;;;;;;;13.57;1.80;;;;;;;;;;5108630;28;20043;-65
2021/11/23 05:27:19;;;;;;;18.85;2.40;;;;;;;;;;5114672;28;20059;-65
2021/11/23 05:29:45;;;;;;;20.75;2.30;;;;;;;;;;5124769;28;20042;-65
2021/11/23 05:32:11;;;;;;;9.32;1.58;;;;;;;;;;5119739;28;20048;-65
2021/11/23 05:34:37;;;;;;;9.77;1.88;;;;;;;;;;5123015;28;20120;-65
2021/11/23 05:37:03;;;;;;;10.00;1.90;;;;;;;;;;5126448;28;20064;-65
2021/11/23 05:39:30;;;;;;;12.43;1.70;;;;;;;;;;5091761;28;20043;-65
2021/11/23 05:41:56;;;;;;;12.23;1.45;;;;;;;;;;5103318;28;20523;-65
2021/11/23 05:44:22;;;;;;;18.48;1.98;;;;;;;;;;5118591;28;20087;-65
2021/11/23 05:46:48;;;;;;;12.02;1.85;;;;;;;;;;5126387;28;20067;-65
2021/11/23 05:49:16;;;;;;;8.52;1.45;;;;;;;;;;5127010;28;20056;-65
2021/11/23 05:51:42;;;;;;;16.63;1.50;;;;;;;;;;5105276;28;20160;-65
2021/11/23 05:54:09;;;;;;;9.25;1.77;;;;;;;;;;5114863;28;20155;-65
2021/11/23 05:56:35;;;;;;;13.32;2.00;;;;;;;;;;5125767;28;20071;-65
2021/11/23 05:59:01;;;;;;;10.32;2.03;;;;;;;;;;5126594;28;20089;-65
2021/11/23 06:01:27;;;;;;;12.90;2.40;;;;;;;;;;5107914;28;20047;-65
2021/11/23 06:03:54;;;;;;;12.23;2.50;;;;;;;;;;5107349;28;20136;-65
2021/11/23 06:06:20;;;;;;;16.25;2.22;;;;;;;;;;5126103;28;20197;-65
2021/11/23 06:08:46;;;;;;;17.45;2.22;;;;;;;;;;5107907;28;20063;-65
2021/11/23 06:11:12;;;;;;;17.92;2.88;;;;;;;;;;5104559;28;20130;-65
2021/11/23 06:13:38;;;;;;;12.45;2.08;;;;;;;;;;5111878;28;20040;-65
2021/11/23 06:16:08;;;;;;;12.07;1.60;;;;;;;;;;5126376;28;20043;-65
2021/11/23 06:18:34;;;;;;;11.38;1.95;;;;;;;;;;5107748;28;20048;-65
2021/11/23 06:21:01;;;;;;;11.07;2.22;;;;;;;;;;5106654;28;20055;-65
2021/11/23 06:23:27;;;;;;;17.10;2.22;;;;;;;;;;5107709;28;20048;-66
2021/11/23 06:25:54;;;;;;;16.35;1.98;;;;;;;;;;5125157;28;20054;-64
2021/11/23 06:28:22;;;;;;;16.02;2.17;;;;;;;;;;5125873;28;20086;-65
2021/11/23 06:30:48;;;;;;;23.98;2.95;;;;;;;;;;5098284;28;20552;-64
2021/11/23 06:33:15;;;;;;;8.65;2.17;;;;;;;;;;5124214;28;20070;-65
2021/11/23 06:35:41;;;;;;;11.48;2.38;;;;;;;;;;5098528;28;20111;-65
2021/11/23 06:38:07;;;;;;;12.25;1.90;;;;;;;;;;5116559;28;20054;-65
2021/11/23 06:40:34;;;;;;;25.30;3.25;;;;;;;;;;5112500;28;20048;-65
2021/11/23 06:43:00;;;;;;;15.02;2.17;;;;;;;;;;5103535;28;20483;-65
2021/11/23 06:45:27;;;;;;;10.23;2.00;;;;;;;;;;5119255;28;20039;-65
2021/11/23 06:47:54;;;;;;;14.10;1.92;;;;;;;;;;5115040;28;20085;-65
2021/11/23 06:50:20;;;;;;;15.60;2.47;;;;;;;;;;5116372;28;20487;-65
2021/11/23 06:52:46;;;;;;;12.27;1.90;;;;;;;;;;5112777;28;20071;-66
2021/11/23 06:55:13;;;;;;;14.20;1.98;;;;;;;;;;5095760;28;20045;-65
2021/11/23 06:57:39;;;;;;;11.88;1.90;;;;;;;;;;5093130;28;20123;-65
2021/11/23 07:00:06;;;;;;;12.63;1.95;;;;;;;;;;5117229;28;20036;-66
2021/11/23 07:02:32;;;;;;;9.50;1.65;;;;;;;;;;5110122;28;20035;-66
2021/11/23 07:05:00;;;;;;;21.85;2.28;;;;;;;;;;5097246;28;20127;-66
2021/11/23 07:07:26;;;;;;;15.65;3.03;;;;;;;;;;5101687;28;20055;-66
2021/11/23 07:09:53;;;;;;;16.10;2.88;;;;;;;;;;5118283;28;20040;-66
2021/11/23 07:12:19;;;;;;;27.95;3.80;;;;;;;;;;5118487;28;20039;-66
2021/11/23 07:14:45;;;;;;;20.08;2.30;;;;;;;;;;5120231;28;20085;-66
2021/11/23 07:17:11;;;;;;;13.18;1.90;;;;;;;;;;5111407;28;20114;-67
2021/11/23 07:19:38;;;;;;;12.30;2.40;;;;;;;;;;5111566;28;20084;-66
2021/11/23 07:22:04;;;;;;;16.40;2.42;;;;;;;;;;5095768;28;20052;-66
2021/11/23 07:24:30;;;;;;;14.20;2.17;;;;;;;;;;5112895;28;20036;-67
2021/11/23 07:26:56;;;;;;;16.95;2.60;;;;;;;;;;5104700;28;20045;-67
2021/11/23 07:29:22;;;;;;;20.40;2.53;;;;;;;;;;5113532;28;20032;-67
2021/11/23 07:31:48;;;;;;;21.33;6.28;;;;;;;;;;5114822;28;20203;-67
2021/11/23 07:34:15;;;;;;;24.95;3.05;;;;;;;;;;5102546;28;20043;-67
2021/11/23 07:36:41;;;;;;;18.38;2.22;;;;;;;;;;5122426;28;20059;-67
2021/11/23 07:39:08;;;;;;;13.68;4.18;;;;;;;;;;5106358;28;20126;-67
2021/11/23 07:41:34;;;;;;;14.93;3.10;;;;;;;;;;5104505;28;20047;-67
2021/11/23 07:44:01;;;;;;;21.70;2.85;;;;;;;;;;5097287;28;20054;-67
2021/11/23 07:46:27;;;;;;;14.82;2.78;;;;;;;;;;5119438;28;20044;-66
2021/11/23 07:48:54;;;;;;;21.17;3.10;;;;;;;;;;5117053;28;20048;-67
2021/11/23 07:51:21;;;;;;;19.17;2.90;;;;;;;;;;5099029;28;20126;-66
2021/11/23 07:53:47;;;;;;;15.20;2.20;;;;;;;;;;5124112;28;20048;-66
2021/11/23 07:56:13;;;;;;;11.48;2.35;;;;;;;;;;5112670;28;20581;-66
2021/11/23 07:58:40;;;;;;;8.32;2.70;;;;;;;;;;5122058;28;20395;-66
2021/11/23 08:01:06;;;;;;;13.32;1.90;;;;;;;;;;5121894;28;20496;-67
2021/11/23 08:03:32;;;;;;;22.85;3.75;;;;;;;;;;5114738;28;20047;-66
2021/11/23 08:05:58;;;;;;;13.15;2.00;;;;;;;;;;5109564;28;20432;-66
2021/11/23 08:08:25;;;;;;;15.02;1.90;;;;;;;;;;5118135;28;20054;-66
2021/11/23 08:10:51;;;;;;;11.57;2.30;;;;;;;;;;5119658;28;20074;-66
2021/11/23 08:13:17;;;;;;;19.63;2.35;;;;;;;;;;5121092;28;20048;-66
2021/11/23 08:15:44;;;;;;;15.23;2.65;;;;;;;;;;5107248;28;20046;-66
2021/11/23 08:18:11;;;;;;;12.15;2.13;;;;;;;;;;5088730;28;20487;-66
2021/11/23 08:20:37;;;;;;;9.18;2.33;;;;;;;;;;5112211;28;20079;-66
2021/11/23 08:23:04;;;;;;;18.13;2.42;;;;;;;;;;5095329;28;20064;-66
2021/11/23 08:25:30;;;;;;;7.53;2.13;;;;;;;;;;5118299;28;20040;-66
2021/11/23 08:27:57;;;;;;;12.93;3.05;;;;;;;;;;5095896;28;20065;-66
2021/11/23 08:30:23;;;;;;;12.63;2.05;;;;;;;;;;5114206;28;20035;-66
2021/11/23 08:32:50;;;;;;;8.60;2.05;;;;;;;;;;5093496;28;20099;-66
2021/11/23 08:35:17;;;;;;;12.20;2.60;;;;;;;;;;5090302;28;20047;-66
2021/11/23 08:37:43;;;;;;;13.90;2.67;;;;;;;;;;5099259;28;20044;-66
2021/11/23 08:40:10;;;;;;;8.23;2.13;;;;;;;;;;5118390;28;20039;-66
2021/11/23 08:42:36;;;;;;;15.80;2.35;;;;;;;;;;5093618;28;20427;-66
2021/11/23 08:45:03;;;;;;;13.10;2.92;;;;;;;;;;5093232;28;20048;-66
2021/11/23 08:47:29;;;;;;;15.45;2.38;;;;;;;;;;5102140;28;20044;-66
2021/11/23 08:49:56;;;;;;;12.75;2.60;;;;;;;;;;5100263;28;20047;-66
2021/11/23 08:52:22;;;;;;;11.43;2.20;;;;;;;;;;5100814;28;20059;-66
2021/11/23 08:54:49;;;;;;;10.48;2.70;;;;;;;;;;5119447;28;20052;-66
2021/11/23 08:57:15;;;;;;;11.98;2.85;;;;;;;;;;5121202;28;20050;-65
2021/11/23 08:59:43;;;;;;;9.68;2.03;;;;;;;;;;5097467;28;20502;-65
2021/11/23 09:02:09;;;;;;;;;;;;;;;;;;5116284;28;20495;-65
2021/11/23 09:04:35;;;;;;;15.13;3.05;;;;;;;;;;5124781;28;19920;-65
2021/11/23 09:07:03;;;;;;;13.90;1.80;;;;;;;;;;5117810;28;20101;-66
2021/11/23 09:09:34;;;;;;;16.48;3.28;;;;;;;;;;5116330;28;20426;-66
2021/11/23 09:12:03;;;;;;;8.45;2.83;;;;;;;;;;5094846;28;20044;-66
2021/11/23 09:14:30;;;;;;;14.82;2.38;;;;;;;;;;5117800;28;20096;-66
2021/11/23 09:16:57;;;;;;;6.90;1.90;;;;;;;;;;5095234;28;20035;-66
2021/11/23 09:19:24;;;;;;;16.98;2.70;;;;;;;;;;5120677;28;20176;-66
2021/11/23 09:21:50;;;;;;;15.52;4.07;;;;;;;;;;5115505;28;20099;-66
2021/11/23 09:24:16;;;;;;;12.48;2.35;;;;;;;;;;5114248;28;20071;-66
2021/11/23 09:26:44;;;;;;;9.32;2.22;;;;;;;;;;5099386;28;20047;-66
2021/11/23 09:29:10;;;;;;;11.20;1.90;;;;;;;;;;5085075;28;20040;-66
2021/11/23 09:31:36;;;;;;;10.90;1.92;;;;;;;;;;5118647;28;20086;-66
2021/11/23 09:34:02;;;;;;;13.77;2.33;;;;;;;;;;5111839;28;20040;-66
2021/11/23 09:36:29;;;;;;;9.82;1.92;;;;;;;;;;5113739;28;20036;-66
2021/11/23 09:38:55;;;;;;;11.52;2.90;;;;;;;;;;5098355;28;20055;-65
2021/11/23 09:41:21;;;;;;;4.13;1.70;;;;;;;;;;5109855;28;20115;-66
2021/11/23 09:43:47;;;;;;;6.18;1.88;;;;;;;;;;5093602;28;20048;-66
2021/11/23 09:46:13;;;;;;;17.75;2.53;;;;;;;;;;5101994;28;20107;-66
2021/11/23 09:48:41;;;;;;;10.77;2.45;;;;;;;;;;5098002;28;20148;-66
2021/11/23 09:51:12;;;;;;;9.52;3.75;;;;;;;;;;5098854;28;20079;-66
2021/11/23 09:53:38;;;;;;;11.43;2.33;;;;;;;;;;5098275;28;20323;-66
2021/11/23 09:56:04;;;;;;;13.30;2.35;;;;;;;;;;5115467;28;20811;-66
2021/11/23 09:58:30;;;;;;;11.82;2.58;;;;;;;;;;5100446;28;20043;-66
2021/11/23 10:01:02;;;;;;;12.35;2.67;;;;;;;;;;5098293;28;20142;-66
2021/11/23 10:03:30;;;;;;;17.00;2.97;;;;;;;;;;5095121;28;20064;-66
2021/11/23 10:06:10;;;;;;;17.73;1.88;;;;;;;;;;5091158;28;20055;-66
2021/11/23 10:08:37;;;;;;;13.00;2.28;;;;;;;;;;5115971;28;20082;-65
2021/11/23 10:11:03;;;;;;;10.90;1.80;;;;;;;;;;5115348;28;20058;-64
2021/11/23 10:13:46;;;;;;;14.00;3.22;;;;;;;;;;5110206;28;20381;-64
2021/11/23 10:16:12;;;;;;;6.35;1.65;;;;;;;;;;5116213;28;20071;-64
2021/11/23 10:18:39;;;;;;;10.18;2.13;;;;;;;;;;5111906;28;20063;-63
2021/11/23 10:21:07;;;;;;;7.30;1.30;;;;;;;;;;5097951;28;20071;-63
2021/11/23 10:23:35;;;;;;;10.13;1.52;;;;;;;;;;5116666;28;20057;-63
2021/11/23 10:26:01;;;;;;;;;;;;;;;;;;5113323;28;20095;-63
2021/11/23 10:28:28;;;;;;;7.40;1.98;;;;;;;;;;5113446;28;19920;-64
2021/11/23 10:30:55;;;;;;;7.50;1.33;;;;;;;;;;5119538;28;20043;-63
2021/11/23 10:33:22;;;;;;;12.68;1.55;;;;;;;;;;5119366;28;20040;-62
2021/11/23 10:35:50;;;;;;;8.07;2.08;;;;;;;;;;5113812;28;20040;-63
2021/11/23 10:38:17;;;;;;;6.75;1.73;;;;;;;;;;5116561;28;20079;-64
2021/11/23 10:40:44;;;;;;;6.68;1.30;;;;;;;;;;5114223;28;20195;-65
2021/11/23 10:43:13;;;;;;;8.30;1.27;;;;;;;;;;5114292;28;20039;-65
2021/11/23 10:45:44;;;;;;;7.25;1.05;;;;;;;;;;5114224;28;20061;-65
2021/11/23 10:48:11;;;;;;;11.88;2.78;;;;;;;;;;5099037;28;20075;-65
2021/11/23 10:50:38;;;;;;;7.90;1.38;;;;;;;;;;5111295;28;20048;-65
2021/11/23 10:53:08;;;;;;;8.88;1.73;;;;;;;;;;5113834;28;20493;-65
2021/11/23 10:55:37;;;;;;;10.18;1.38;;;;;;;;;;5112300;28;20070;-65
2021/11/23 10:58:05;;;;;;;5.95;1.08;;;;;;;;;;5090497;28;20063;-65
2021/11/23 11:00:32;;;;;;;7.95;1.70;;;;;;;;;;5098864;28;20044;-65
2021/11/23 11:03:02;;;;;;;8.13;1.42;;;;;;;;;;5110305;28;20096;-65
2021/11/23 11:05:32;;;;;;;5.32;1.10;;;;;;;;;;5095642;28;20069;-65
2021/11/23 11:07:59;;;;;;;4.32;1.02;;;;;;;;;;5114497;28;20562;-65
2021/11/23 11:10:26;;;;;;;9.50;1.35;;;;;;;;;;5114364;28;20048;-65
2021/11/23 11:12:52;;;;;;;10.40;2.25;;;;;;;;;;5113819;28;20511;-64
2021/11/23 11:15:21;;;;;;;10.63;1.38;;;;;;;;;;5100788;28;20051;-64
2021/11/23 11:17:48;;;;;;;7.10;1.30;;;;;;;;;;5118091;28;20126;-65
2021/11/23 11:20:32;;;;;;;4.93;1.25;;;;;;;;;;5116895;28;20056;-64
2021/11/23 11:23:03;;;;;;;10.23;1.40;;;;;;;;;;5108416;28;20055;-64
2021/11/23 11:25:49;;;;;;;8.65;1.35;;;;;;;;;;5079236;28;20115;-64
2021/11/23 11:28:16;;;;;;;6.70;1.05;;;;;;;;;;5114072;28;20094;-64
2021/11/23 11:30:49;;;;;;;4.20;1.02;;;;;;;;;;5112971;28;20062;-65
2021/11/23 11:33:21;;;;;;;5.97;1.55;;;;;;;;;;5114878;28;20043;-66
2021/11/23 11:35:52;;;;;;;4.22;1.02;;;;;;;;;;5097275;28;20040;-67
2021/11/23 11:38:31;;;;;;;5.65;1.05;;;;;;;;;;5111353;28;20054;-68
2021/11/23 11:40:59;;;;;;;9.98;1.55;;;;;;;;;;5112636;28;20055;-67
2021/11/23 11:43:32;;;;;;;7.75;2.20;;;;;;;;;;5110767;28;20078;-67
2021/11/23 11:45:59;;;;;;;5.55;1.65;;;;;;;;;;5116008;28;20032;-67
2021/11/23 11:48:37;;;;;;;5.97;1.27;;;;;;;;;;5110895;28;20052;-67
2021/11/23 11:51:03;;;;;;;;;;;;;;;;;;5115673;28;20093;-67
2021/11/23 11:53:31;;;;;;;7.47;1.02;;;;;;;;;;5111959;28;19920;-67
2021/11/23 11:55:58;;;;;;;8.68;1.35;;;;;;;;;;5116688;28;20052;-67
2021/11/23 11:58:44;;;;;;;6.47;1.30;;;;;;;;;;5114543;28;20129;-67
2021/11/23 12:01:25;;;;;;;9.57;1.00;;;;;;;;;;5117256;28;20048;-67
2021/11/23 12:04:01;;;;;;;8.65;1.60;;;;;;;;;;5116459;28;20112;-67
2021/11/23 12:06:46;;;;;;;11.85;1.63;;;;;;;;;;5100288;28;20051;-67
2021/11/23 12:09:31;;;;;;;8.75;1.00;;;;;;;;;;5113954;28;20032;-67
2021/11/23 12:12:17;;;;;;;9.50;1.40;;;;;;;;;;5119331;28;20438;-67
2021/11/23 12:14:53;;;;;;;10.90;1.67;;;;;;;;;;5096417;28;20052;-67
2021/11/23 12:17:34;;;;;;;5.78;1.05;;;;;;;;;;5099765;28;20056;-66
2021/11/23 12:20:11;;;;;;;14.23;2.38;;;;;;;;;;5121122;28;20040;-66
2021/11/23 12:22:41;;;;;;;7.55;1.45;;;;;;;;;;5098624;28;20134;-66
2021/11/23 12:25:10;;;;;;;4.53;0.88;;;;;;;;;;5096339;28;20044;-66
2021/11/23 12:27:36;;;;;;;12.13;1.55;;;;;;;;;;5096662;28;20044;-66
2021/11/23 12:30:03;;;;;;;10.32;1.58;;;;;;;;;;5115748;28;20184;-66
2021/11/23 12:32:34;;;;;;;8.48;1.58;;;;;;;;;;5110955;28;20044;-66
2021/11/23 12:35:01;;;;;;;6.50;1.48;;;;;;;;;;5093917;28;20111;-66
2021/11/23 12:37:45;;;;;;;6.10;1.42;;;;;;;;;;5095385;28;20123;-66
2021/11/23 12:40:11;;;;;;;7.97;1.67;;;;;;;;;;5114596;28;20066;-66
2021/11/23 12:42:50;;;;;;;7.28;1.48;;;;;;;;;;5116413;28;20036;-66
2021/11/23 12:45:16;;;;;;;7.70;1.55;;;;;;;;;;5119494;28;20069;-64
2021/11/23 12:47:43;;;;;;;7.82;1.67;;;;;;;;;;5116826;28;20043;-64
2021/11/23 12:50:09;;;;;;;13.15;1.95;;;;;;;;;;5115035;28;20377;-64
2021/11/23 12:52:35;;;;;;;11.02;1.65;;;;;;;;;;5113865;28;20492;-64
2021/11/23 12:55:03;;;;;;;8.10;1.95;;;;;;;;;;5101638;28;20048;-64
2021/11/23 12:57:29;;;;;;;5.90;1.27;;;;;;;;;;5112355;28;20048;-64
2021/11/23 12:59:59;;;;;;;7.30;1.40;;;;;;;;;;5102894;28;20070;-64
2021/11/23 13:02:25;;;;;;;6.35;1.23;;;;;;;;;;5092440;28;20055;-64
2021/11/23 13:04:52;;;;;;;7.82;1.08;;;;;;;;;;5092175;28;20044;-64
2021/11/23 13:07:18;;;;;;;7.63;1.10;;;;;;;;;;5111941;28;20047;-64
2021/11/23 13:09:46;;;;;;;7.97;1.00;;;;;;;;;;5091917;28;20043;-64
2021/11/23 13:12:13;;;;;;;11.43;1.50;;;;;;;;;;5113152;28;20052;-64
2021/11/23 13:14:54;;;;;;;4.65;1.02;;;;;;;;;;5113879;28;20047;-64
2021/11/23 13:17:38;;;;;;;8.77;1.52;;;;;;;;;;5113880;28;20047;-64
2021/11/23 13:20:05;;;;;;;10.50;2.15;;;;;;;;;;5095549;28;20060;-64
2021/11/23 13:22:42;;;;;;;6.13;1.48;;;;;;;;;;5116757;28;20071;-64
2021/11/23 13:25:09;;;;;;;7.28;1.50;;;;;;;;;;5113189;28;20074;-64
2021/11/23 13:27:36;;;;;;;8.80;1.42;;;;;;;;;;5098985;28;20127;-64
2021/11/23 13:30:06;;;;;;;4.15;0.93;;;;;;;;;;5118595;28;20077;-64
2021/11/23 13:32:43;;;;;;;6.93;2.20;;;;;;;;;;5118987;28;20055;-64
2021/11/23 13:35:10;;;;;;;8.45;1.38;;;;;;;;;;5092241;28;20067;-64
2021/11/23 13:37:39;;;;;;;3.17;0.70;;;;;;;;;;5107669;28;20039;-64
2021/11/23 13:40:22;;;;;;;11.00;1.50;;;;;;;;;;5112189;28;20294;-64
2021/11/23 13:42:48;;;;;;;8.85;1.17;;;;;;;;;;5115394;28;20580;-63
2021/11/23 13:45:18;;;;;;;7.90;1.77;;;;;;;;;;5112850;28;20147;-63
2021/11/23 13:47:44;;;;;;;7.95;1.23;;;;;;;;;;5092886;28;20062;-63
2021/11/23 13:50:13;;;;;;;10.55;1.48;;;;;;;;;;5110960;28;20047;-63
2021/11/23 13:52:39;;;;;;;6.85;1.08;;;;;;;;;;5092085;28;20043;-63
2021/11/23 13:55:06;;;;;;;6.85;1.88;;;;;;;;;;5091184;28;22060;-63
2021/11/23 13:57:37;;;;;;;6.03;1.10;;;;;;;;;;5113677;28;20111;-63
2021/11/23 14:00:08;;;;;;;6.80;1.23;;;;;;;;;;5097251;28;20051;-63
2021/11/23 14:02:42;;;;;;;12.25;1.95;;;;;;;;;;5085072;28;20051;-63
2021/11/23 14:05:08;;;;;;;11.18;2.00;;;;;;;;;;5121268;28;20143;-63
2021/11/23 14:07:51;;;;;;;6.68;1.73;;;;;;;;;;5096930;28;20047;-63
2021/11/23 14:10:29;;;;;;;13.13;1.98;;;;;;;;;;5115015;28;20044;-63
2021/11/23 14:13:00;;;;;;;6.90;1.27;;;;;;;;;;5095890;28;20606;-63
2021/11/23 14:15:26;;;;;;;6.90;1.35;;;;;;;;;;5093528;28;20051;-65
2021/11/23 14:18:01;;;;;;;10.23;1.23;;;;;;;;;;5112651;28;20047;-63
2021/11/23 14:20:31;;;;;;;6.07;1.20;;;;;;;;;;5095414;28;20087;-64
2021/11/23 14:22:58;;;;;;;14.18;1.40;;;;;;;;;;5096092;28;20058;-64
2021/11/23 14:25:25;;;;;;;8.73;1.70;;;;;;;;;;5113566;28;20044;-63
2021/11/23 14:27:52;;;;;;;11.07;1.80;;;;;;;;;;5115595;28;20373;-64
2021/11/23 14:30:19;;;;;;;10.45;1.23;;;;;;;;;;5095075;28;20079;-64
2021/11/23 14:32:45;;;;;;;5.15;0.95;;;;;;;;;;5093630;28;20050;-64
2021/11/23 14:35:11;;;;;;;8.18;2.10;;;;;;;;;;5092659;28;20124;-64
2021/11/23 14:37:37;;;;;;;8.70;1.60;;;;;;;;;;5093645;28;20044;-64
2021/11/23 14:40:04;;;;;;;13.38;2.40;;;;;;;;;;5116000;28;20050;-64